Goodyears Corners, New York
Current Conditions -  °F | °C
As of 6:56 AM on Friday 31 Oct 2014 (Local Time) from KITH Reporting Station
Broken Clouds Broken Clouds  
Wind Chill: -1°   Ceiling: 5000
Heat Index:   Visibility: 10mi
Dew Point:   Wind: 5mph
Humidity: 96%   Direction: 90°E
Pressure: 30"   Gusts: NA
Location:  42.6734°N, 76.6263°W
Report Text: KITH 311056Z 09004KT 10SM BKN050 01/01 A3000 RMK AO2 T00110005 SLP168
Loading
Personal Weather Stations






























Interactive Weather Map
Tropical Storm Tracking
New forecast layout! Learn more

10-Day Weather Forecast

Advertisements
Track Severe Weather on mobile